sensor_id;sensor_type;location;lat;lon;timestamp;pressure;altitude;pressure_sealevel;temperature;humidity
45991;BME280;31721;41.740;-88.000;2023-05-10T00:00:08;99403.69;;;20.59;28.84
45991;BME280;31721;41.740;-88.000;2023-05-10T00:02:37;99400.74;;;20.52;29.00
45991;BME280;31721;41.740;-88.000;2023-05-10T00:05:06;99400.25;;;20.53;28.80
45991;BME280;31721;41.740;-88.000;2023-05-10T00:07:34;99400.34;;;20.39;29.20
45991;BME280;31721;41.740;-88.000;2023-05-10T00:10:03;99403.15;;;20.38;28.76
45991;BME280;31721;41.740;-88.000;2023-05-10T00:12:30;99398.53;;;20.27;28.68
45991;BME280;31721;41.740;-88.000;2023-05-10T00:14:58;99403.80;;;20.20;28.89
45991;BME280;31721;41.740;-88.000;2023-05-10T00:17:27;99403.40;;;20.19;28.95
45991;BME280;31721;41.740;-88.000;2023-05-10T00:19:55;99403.79;;;20.14;29.05
45991;BME280;31721;41.740;-88.000;2023-05-10T00:22:23;99401.61;;;20.18;29.51
45991;BME280;31721;41.740;-88.000;2023-05-10T00:24:51;99406.72;;;20.17;29.54
45991;BME280;31721;41.740;-88.000;2023-05-10T00:27:20;99410.18;;;20.15;29.22
45991;BME280;31721;41.740;-88.000;2023-05-10T00:29:48;99410.87;;;20.09;29.27
45991;BME280;31721;41.740;-88.000;2023-05-10T00:32:16;99415.46;;;19.94;29.35
45991;BME280;31721;41.740;-88.000;2023-05-10T00:34:43;99417.48;;;19.94;29.28
45991;BME280;31721;41.740;-88.000;2023-05-10T00:37:10;99418.32;;;19.88;29.49
45991;BME280;31721;41.740;-88.000;2023-05-10T00:39:38;99418.03;;;19.90;29.30
45991;BME280;31721;41.740;-88.000;2023-05-10T00:42:06;99418.15;;;19.70;29.43
45991;BME280;31721;41.740;-88.000;2023-05-10T00:44:34;99416.08;;;19.72;29.76
45991;BME280;31721;41.740;-88.000;2023-05-10T00:47:02;99420.21;;;19.52;29.91
45991;BME280;31721;41.740;-88.000;2023-05-10T00:49:30;99418.77;;;19.49;29.77
45991;BME280;31721;41.740;-88.000;2023-05-10T00:51:58;99420.03;;;19.41;29.96
45991;BME280;31721;41.740;-88.000;2023-05-10T00:54:26;99420.11;;;19.33;30.02
45991;BME280;31721;41.740;-88.000;2023-05-10T00:56:54;99415.28;;;19.25;30.22
45991;BME280;31721;41.740;-88.000;2023-05-10T00:59:22;99414.49;;;19.18;30.28
45991;BME280;31721;41.740;-88.000;2023-05-10T01:01:51;99416.11;;;19.16;30.40
45991;BME280;31721;41.740;-88.000;2023-05-10T01:04:20;99420.46;;;19.11;30.68
45991;BME280;31721;41.740;-88.000;2023-05-10T01:06:47;99428.06;;;18.94;30.71
45991;BME280;31721;41.740;-88.000;2023-05-10T01:09:16;99428.32;;;19.01;30.69
45991;BME280;31721;41.740;-88.000;2023-05-10T01:11:44;99431.54;;;18.95;30.95
45991;BME280;31721;41.740;-88.000;2023-05-10T01:14:12;99433.20;;;18.78;30.99
45991;BME280;31721;41.740;-88.000;2023-05-10T01:16:41;99432.70;;;18.67;30.88
45991;BME280;31721;41.740;-88.000;2023-05-10T01:19:15;99431.28;;;18.65;31.11
45991;BME280;31721;41.740;-88.000;2023-05-10T01:21:50;99435.49;;;18.57;31.16
45991;BME280;31721;41.740;-88.000;2023-05-10T01:24:56;99436.62;;;18.43;31.30
45991;BME280;31721;41.740;-88.000;2023-05-10T01:28:53;99444.02;;;18.42;31.42
45991;BME280;31721;41.740;-88.000;2023-05-10T01:31:47;99449.94;;;18.27;31.59
45991;BME280;31721;41.740;-88.000;2023-05-10T01:34:18;99455.21;;;18.09;31.71
45991;BME280;31721;41.740;-88.000;2023-05-10T01:36:53;99459.38;;;18.10;31.88
45991;BME280;31721;41.740;-88.000;2023-05-10T01:39:25;99463.99;;;18.03;32.04
45991;BME280;31721;41.740;-88.000;2023-05-10T01:42:01;99468.03;;;17.97;32.15
45991;BME280;31721;41.740;-88.000;2023-05-10T01:44:37;99471.35;;;17.96;32.57
45991;BME280;31721;41.740;-88.000;2023-05-10T01:47:10;99476.08;;;17.89;32.68
45991;BME280;31721;41.740;-88.000;2023-05-10T01:49:41;99478.04;;;17.84;32.79
45991;BME280;31721;41.740;-88.000;2023-05-10T01:52:14;99481.41;;;17.77;32.89
45991;BME280;31721;41.740;-88.000;2023-05-10T01:54:49;99481.18;;;17.71;33.03
45991;BME280;31721;41.740;-88.000;2023-05-10T01:57:19;99477.13;;;17.66;33.31
45991;BME280;31721;41.740;-88.000;2023-05-10T01:59:50;99472.74;;;17.60;33.34
45991;BME280;31721;41.740;-88.000;2023-05-10T02:02:21;99469.72;;;17.48;33.44
45991;BME280;31721;41.740;-88.000;2023-05-10T02:04:50;99464.61;;;17.47;33.50
45991;BME280;31721;41.740;-88.000;2023-05-10T02:07:18;99466.22;;;17.51;33.92
45991;BME280;31721;41.740;-88.000;2023-05-10T02:09:48;99462.20;;;17.39;34.40
45991;BME280;31721;41.740;-88.000;2023-05-10T02:12:16;99458.69;;;17.35;34.07
45991;BME280;31721;41.740;-88.000;2023-05-10T02:14:45;99457.21;;;17.30;34.06
45991;BME280;31721;41.740;-88.000;2023-05-10T02:17:14;99455.05;;;17.19;34.16
45991;BME280;31721;41.740;-88.000;2023-05-10T02:19:43;99455.31;;;17.28;34.04
45991;BME280;31721;41.740;-88.000;2023-05-10T02:22:12;99454.24;;;17.19;34.11
45991;BME280;31721;41.740;-88.000;2023-05-10T02:24:41;99453.62;;;16.94;33.99
45991;BME280;31721;41.740;-88.000;2023-05-10T02:27:10;99458.07;;;16.88;34.28
45991;BME280;31721;41.740;-88.000;2023-05-10T02:29:39;99458.83;;;16.96;34.72
45991;BME280;31721;41.740;-88.000;2023-05-10T02:32:10;99462.87;;;16.90;34.69
45991;BME280;31721;41.740;-88.000;2023-05-10T02:34:39;99461.41;;;16.87;34.84
45991;BME280;31721;41.740;-88.000;2023-05-10T02:37:07;99461.67;;;16.83;35.04
45991;BME280;31721;41.740;-88.000;2023-05-10T02:39:36;99464.42;;;16.70;34.97
45991;BME280;31721;41.740;-88.000;2023-05-10T02:42:05;99466.09;;;16.61;35.06
45991;BME280;31721;41.740;-88.000;2023-05-10T02:44:34;99468.23;;;16.56;35.30
45991;BME280;31721;41.740;-88.000;2023-05-10T02:47:04;99467.80;;;16.45;35.39
45991;BME280;31721;41.740;-88.000;2023-05-10T02:49:31;99471.64;;;16.46;35.71
45991;BME280;31721;41.740;-88.000;2023-05-10T02:52:01;99477.69;;;16.38;36.00
45991;BME280;31721;41.740;-88.000;2023-05-10T02:54:34;99483.96;;;16.43;35.85
45991;BME280;31721;41.740;-88.000;2023-05-10T02:57:06;99485.42;;;16.32;35.86
45991;BME280;31721;41.740;-88.000;2023-05-10T02:59:35;99483.07;;;16.33;35.98
45991;BME280;31721;41.740;-88.000;2023-05-10T03:02:04;99481.21;;;16.31;36.67
45991;BME280;31721;41.740;-88.000;2023-05-10T03:04:32;99488.89;;;16.29;36.96
45991;BME280;31721;41.740;-88.000;2023-05-10T03:07:00;99489.45;;;16.23;36.92
45991;BME280;31721;41.740;-88.000;2023-05-10T03:09:29;99486.51;;;16.18;36.55
45991;BME280;31721;41.740;-88.000;2023-05-10T03:12:02;99492.53;;;16.17;36.77
45991;BME280;31721;41.740;-88.000;2023-05-10T03:14:39;99501.18;;;16.09;37.45
45991;BME280;31721;41.740;-88.000;2023-05-10T03:17:14;99499.19;;;16.05;37.50
45991;BME280;31721;41.740;-88.000;2023-05-10T03:19:50;99495.71;;;16.06;37.18
45991;BME280;31721;41.740;-88.000;2023-05-10T03:22:25;99494.56;;;16.00;37.35
45991;BME280;31721;41.740;-88.000;2023-05-10T03:24:55;99491.42;;;15.93;37.27
45991;BME280;31721;41.740;-88.000;2023-05-10T03:27:26;99488.31;;;15.79;37.43
45991;BME280;31721;41.740;-88.000;2023-05-10T03:29:55;99489.09;;;15.92;37.43
45991;BME280;31721;41.740;-88.000;2023-05-10T03:32:23;99488.21;;;15.89;37.61
45991;BME280;31721;41.740;-88.000;2023-05-10T03:34:52;99486.02;;;15.75;37.34
45991;BME280;31721;41.740;-88.000;2023-05-10T03:37:20;99479.99;;;15.72;37.52
45991;BME280;31721;41.740;-88.000;2023-05-10T03:39:48;99474.41;;;15.77;37.69
45991;BME280;31721;41.740;-88.000;2023-05-10T03:42:16;99476.30;;;15.60;37.93
45991;BME280;31721;41.740;-88.000;2023-05-10T03:44:44;99479.19;;;15.65;37.70
45991;BME280;31721;41.740;-88.000;2023-05-10T03:47:11;99475.88;;;15.69;37.99
45991;BME280;31721;41.740;-88.000;2023-05-10T03:49:40;99473.69;;;15.56;37.71
45991;BME280;31721;41.740;-88.000;2023-05-10T03:52:08;99475.71;;;15.60;37.55
45991;BME280;31721;41.740;-88.000;2023-05-10T03:54:36;99482.37;;;15.49;37.72
45991;BME280;31721;41.740;-88.000;2023-05-10T03:57:04;99483.26;;;15.54;37.81
45991;BME280;31721;41.740;-88.000;2023-05-10T03:59:32;99485.19;;;15.52;37.72
45991;BME280;31721;41.740;-88.000;2023-05-10T04:02:00;99486.30;;;15.35;37.69
45991;BME280;31721;41.740;-88.000;2023-05-10T04:04:28;99485.37;;;15.40;37.71
45991;BME280;31721;41.740;-88.000;2023-05-10T04:06:56;99485.44;;;15.37;37.71
45991;BME280;31721;41.740;-88.000;2023-05-10T04:09:24;99489.17;;;15.30;38.12
45991;BME280;31721;41.740;-88.000;2023-05-10T04:11:51;99493.27;;;15.26;38.03
45991;BME280;31721;41.740;-88.000;2023-05-10T04:14:19;99497.91;;;15.19;38.01
45991;BME280;31721;41.740;-88.000;2023-05-10T04:16:47;99497.33;;;15.14;38.29
45991;BME280;31721;41.740;-88.000;2023-05-10T04:19:14;99502.05;;;15.08;38.37
45991;BME280;31721;41.740;-88.000;2023-05-10T04:21:42;99503.56;;;15.09;38.61
45991;BME280;31721;41.740;-88.000;2023-05-10T04:24:10;99508.95;;;15.05;38.63
45991;BME280;31721;41.740;-88.000;2023-05-10T04:26:38;99511.27;;;15.01;38.67
45991;BME280;31721;41.740;-88.000;2023-05-10T04:29:05;99508.58;;;14.91;38.68
45991;BME280;31721;41.740;-88.000;2023-05-10T04:31:33;99506.46;;;14.75;38.91
45991;BME280;31721;41.740;-88.000;2023-05-10T04:34:01;99505.57;;;14.76;39.20
45991;BME280;31721;41.740;-88.000;2023-05-10T04:36:29;99507.64;;;14.80;39.17
45991;BME280;31721;41.740;-88.000;2023-05-10T04:38:57;99508.12;;;14.66;39.19
45991;BME280;31721;41.740;-88.000;2023-05-10T04:41:25;99502.80;;;14.57;39.33
45991;BME280;31721;41.740;-88.000;2023-05-10T04:43:53;99497.69;;;14.68;39.81
45991;BME280;31721;41.740;-88.000;2023-05-10T04:46:21;99495.66;;;14.55;39.98
45991;BME280;31721;41.740;-88.000;2023-05-10T04:48:49;99497.62;;;14.54;40.02
45991;BME280;31721;41.740;-88.000;2023-05-10T04:51:17;99501.96;;;14.45;40.16
45991;BME280;31721;41.740;-88.000;2023-05-10T04:53:45;99508.67;;;14.42;40.48
45991;BME280;31721;41.740;-88.000;2023-05-10T04:56:13;99510.51;;;14.37;40.57
45991;BME280;31721;41.740;-88.000;2023-05-10T04:58:40;99513.07;;;14.28;40.76
45991;BME280;31721;41.740;-88.000;2023-05-10T05:01:09;99515.05;;;14.19;40.88
45991;BME280;31721;41.740;-88.000;2023-05-10T05:03:37;99525.45;;;14.14;41.20
45991;BME280;31721;41.740;-88.000;2023-05-10T05:06:06;99528.37;;;14.19;41.33
45991;BME280;31721;41.740;-88.000;2023-05-10T05:08:33;99531.51;;;14.06;41.02
45991;BME280;31721;41.740;-88.000;2023-05-10T05:11:01;99534.00;;;14.00;41.07
45991;BME280;31721;41.740;-88.000;2023-05-10T05:13:29;99542.47;;;14.12;40.99
45991;BME280;31721;41.740;-88.000;2023-05-10T05:15:59;99545.05;;;13.92;41.20
45991;BME280;31721;41.740;-88.000;2023-05-10T05:18:27;99548.17;;;13.87;41.35
45991;BME280;31721;41.740;-88.000;2023-05-10T05:20:55;99551.74;;;13.91;41.57
45991;BME280;31721;41.740;-88.000;2023-05-10T05:23:23;99554.18;;;13.78;41.83
45991;BME280;31721;41.740;-88.000;2023-05-10T05:25:52;99561.55;;;13.89;42.00
45991;BME280;31721;41.740;-88.000;2023-05-10T05:28:20;99566.77;;;13.72;42.10
45991;BME280;31721;41.740;-88.000;2023-05-10T05:30:48;99559.92;;;13.79;42.34
45991;BME280;31721;41.740;-88.000;2023-05-10T05:33:16;99558.53;;;13.77;42.10
45991;BME280;31721;41.740;-88.000;2023-05-10T05:35:44;99553.69;;;13.74;42.36
45991;BME280;31721;41.740;-88.000;2023-05-10T05:38:12;99551.12;;;13.80;42.18
45991;BME280;31721;41.740;-88.000;2023-05-10T05:40:40;99549.30;;;13.59;42.41
45991;BME280;31721;41.740;-88.000;2023-05-10T05:43:08;99546.25;;;13.73;42.47
45991;BME280;31721;41.740;-88.000;2023-05-10T05:45:36;99542.52;;;13.71;42.36
45991;BME280;31721;41.740;-88.000;2023-05-10T05:48:05;99539.74;;;13.64;42.57
45991;BME280;31721;41.740;-88.000;2023-05-10T05:50:32;99538.70;;;13.46;43.05
45991;BME280;31721;41.740;-88.000;2023-05-10T05:53:00;99539.89;;;13.45;43.37
45991;BME280;31721;41.740;-88.000;2023-05-10T05:55:28;99541.99;;;13.53;43.49
45991;BME280;31721;41.740;-88.000;2023-05-10T05:57:56;99543.68;;;13.60;43.26
45991;BME280;31721;41.740;-88.000;2023-05-10T06:00:24;99544.49;;;13.56;43.37
45991;BME280;31721;41.740;-88.000;2023-05-10T06:02:51;99549.22;;;13.46;43.78
45991;BME280;31721;41.740;-88.000;2023-05-10T06:05:20;99550.71;;;13.51;43.73
45991;BME280;31721;41.740;-88.000;2023-05-10T06:07:48;99555.93;;;13.46;43.53
45991;BME280;31721;41.740;-88.000;2023-05-10T06:10:16;99561.56;;;13.43;43.25
45991;BME280;31721;41.740;-88.000;2023-05-10T06:12:44;99565.32;;;13.31;43.52
45991;BME280;31721;41.740;-88.000;2023-05-10T06:15:12;99566.09;;;13.38;43.70
45991;BME280;31721;41.740;-88.000;2023-05-10T06:17:40;99563.96;;;13.33;43.57
45991;BME280;31721;41.740;-88.000;2023-05-10T06:20:09;99564.49;;;13.29;43.11
45991;BME280;31721;41.740;-88.000;2023-05-10T06:22:37;99563.71;;;13.25;43.31
45991;BME280;31721;41.740;-88.000;2023-05-10T06:25:06;99566.17;;;13.23;43.28
45991;BME280;31721;41.740;-88.000;2023-05-10T06:27:34;99574.91;;;13.22;43.38
45991;BME280;31721;41.740;-88.000;2023-05-10T06:30:02;99579.07;;;13.18;43.03
45991;BME280;31721;41.740;-88.000;2023-05-10T06:32:30;99576.89;;;13.15;43.10
45991;BME280;31721;41.740;-88.000;2023-05-10T06:34:58;99574.71;;;13.08;43.31
45991;BME280;31721;41.740;-88.000;2023-05-10T06:37:26;99578.87;;;13.06;43.21
45991;BME280;31721;41.740;-88.000;2023-05-10T06:39:54;99583.48;;;13.11;43.08
45991;BME280;31721;41.740;-88.000;2023-05-10T06:42:22;99578.10;;;12.97;43.06
45991;BME280;31721;41.740;-88.000;2023-05-10T06:44:50;99571.24;;;12.92;43.05
45991;BME280;31721;41.740;-88.000;2023-05-10T06:47:18;99567.51;;;12.86;43.12
45991;BME280;31721;41.740;-88.000;2023-05-10T06:49:46;99567.59;;;12.83;43.04
45991;BME280;31721;41.740;-88.000;2023-05-10T06:52:14;99565.20;;;12.77;43.05
45991;BME280;31721;41.740;-88.000;2023-05-10T06:54:42;99560.49;;;12.75;43.06
45991;BME280;31721;41.740;-88.000;2023-05-10T06:57:10;99558.57;;;12.70;43.39
45991;BME280;31721;41.740;-88.000;2023-05-10T06:59:38;99555.68;;;12.67;43.27
45991;BME280;31721;41.740;-88.000;2023-05-10T07:02:06;99553.31;;;12.78;43.25
45991;BME280;31721;41.740;-88.000;2023-05-10T07:04:34;99553.93;;;12.57;43.59
45991;BME280;31721;41.740;-88.000;2023-05-10T07:07:02;99555.89;;;12.65;43.66
45991;BME280;31721;41.740;-88.000;2023-05-10T07:09:30;99550.17;;;12.68;43.56
45991;BME280;31721;41.740;-88.000;2023-05-10T07:11:58;99549.51;;;12.50;43.26
45991;BME280;31721;41.740;-88.000;2023-05-10T07:14:26;99553.27;;;12.39;43.61
45991;BME280;31721;41.740;-88.000;2023-05-10T07:16:53;99550.86;;;12.33;43.57
45991;BME280;31721;41.740;-88.000;2023-05-10T07:19:22;99550.73;;;12.45;43.98
45991;BME280;31721;41.740;-88.000;2023-05-10T07:21:50;99553.80;;;12.42;44.08
45991;BME280;31721;41.740;-88.000;2023-05-10T07:24:18;99552.95;;;12.35;44.01
45991;BME280;31721;41.740;-88.000;2023-05-10T07:26:46;99551.83;;;12.36;44.30
45991;BME280;31721;41.740;-88.000;2023-05-10T07:29:14;99551.31;;;12.31;44.28
45991;BME280;31721;41.740;-88.000;2023-05-10T07:31:42;99543.93;;;12.23;44.32
45991;BME280;31721;41.740;-88.000;2023-05-10T07:34:10;99534.99;;;12.22;44.41
45991;BME280;31721;41.740;-88.000;2023-05-10T07:36:38;99528.40;;;12.19;44.36
45991;BME280;31721;41.740;-88.000;2023-05-10T07:39:06;99529.54;;;12.11;44.42
45991;BME280;31721;41.740;-88.000;2023-05-10T07:41:35;99528.72;;;12.04;44.53
45991;BME280;31721;41.740;-88.000;2023-05-10T07:44:03;99525.02;;;12.09;44.48
45991;BME280;31721;41.740;-88.000;2023-05-10T07:46:31;99523.83;;;11.97;44.61
45991;BME280;31721;41.740;-88.000;2023-05-10T07:48:59;99525.14;;;12.01;44.61
45991;BME280;31721;41.740;-88.000;2023-05-10T07:51:27;99524.70;;;11.96;44.75
45991;BME280;31721;41.740;-88.000;2023-05-10T07:53:54;99522.45;;;11.94;44.84
45991;BME280;31721;41.740;-88.000;2023-05-10T07:56:24;99523.77;;;11.91;44.93
45991;BME280;31721;41.740;-88.000;2023-05-10T07:58:52;99523.84;;;11.94;45.10
45991;BME280;31721;41.740;-88.000;2023-05-10T08:01:20;99522.45;;;11.86;44.96
45991;BME280;31721;41.740;-88.000;2023-05-10T08:03:48;99520.78;;;11.81;45.04
45991;BME280;31721;41.740;-88.000;2023-05-10T08:06:17;99525.04;;;11.86;45.03
45991;BME280;31721;41.740;-88.000;2023-05-10T08:08:46;99525.88;;;11.91;45.27
45991;BME280;31721;41.740;-88.000;2023-05-10T08:11:14;99524.11;;;11.72;45.11
45991;BME280;31721;41.740;-88.000;2023-05-10T08:13:41;99530.44;;;11.71;45.37
45991;BME280;31721;41.740;-88.000;2023-05-10T08:16:09;99534.19;;;11.72;45.53
45991;BME280;31721;41.740;-88.000;2023-05-10T08:18:38;99536.23;;;11.70;45.56
45991;BME280;31721;41.740;-88.000;2023-05-10T08:21:06;99533.82;;;11.76;45.54
45991;BME280;31721;41.740;-88.000;2023-05-10T08:23:34;99530.60;;;11.68;45.60
45991;BME280;31721;41.740;-88.000;2023-05-10T08:26:03;99527.73;;;11.75;45.66
45991;BME280;31721;41.740;-88.000;2023-05-10T08:28:31;99524.74;;;11.61;45.74
45991;BME280;31721;41.740;-88.000;2023-05-10T08:30:59;99524.64;;;11.73;45.85
45991;BME280;31721;41.740;-88.000;2023-05-10T08:33:27;99521.73;;;11.74;45.90
45991;BME280;31721;41.740;-88.000;2023-05-10T08:35:55;99523.15;;;11.65;45.94
45991;BME280;31721;41.740;-88.000;2023-05-10T08:38:23;99522.08;;;11.72;46.04
45991;BME280;31721;41.740;-88.000;2023-05-10T08:40:53;99517.33;;;11.75;46.22
45991;BME280;31721;41.740;-88.000;2023-05-10T08:43:21;99508.30;;;11.63;46.21
45991;BME280;31721;41.740;-88.000;2023-05-10T08:45:53;99505.17;;;11.53;46.45
45991;BME280;31721;41.740;-88.000;2023-05-10T08:48:23;99498.43;;;11.52;46.59
45991;BME280;31721;41.740;-88.000;2023-05-10T08:50:53;99491.04;;;11.50;46.45
45991;BME280;31721;41.740;-88.000;2023-05-10T08:53:23;99490.07;;;11.49;46.50
45991;BME280;31721;41.740;-88.000;2023-05-10T08:55:51;99487.55;;;11.57;46.72
45991;BME280;31721;41.740;-88.000;2023-05-10T08:58:20;99483.50;;;11.47;46.53
45991;BME280;31721;41.740;-88.000;2023-05-10T09:00:49;99485.79;;;11.66;46.96
45991;BME280;31721;41.740;-88.000;2023-05-10T09:03:17;99486.65;;;11.57;46.80
45991;BME280;31721;41.740;-88.000;2023-05-10T09:05:45;99488.89;;;11.55;46.66
45991;BME280;31721;41.740;-88.000;2023-05-10T09:08:13;99493.72;;;11.61;46.67
45991;BME280;31721;41.740;-88.000;2023-05-10T09:10:42;99494.80;;;11.50;46.71
45991;BME280;31721;41.740;-88.000;2023-05-10T09:13:11;99494.09;;;11.37;46.95
45991;BME280;31721;41.740;-88.000;2023-05-10T09:15:39;99491.09;;;11.44;47.08
45991;BME280;31721;41.740;-88.000;2023-05-10T09:18:07;99490.55;;;11.45;47.25
45991;BME280;31721;41.740;-88.000;2023-05-10T09:20:35;99496.59;;;11.34;47.07
45991;BME280;31721;41.740;-88.000;2023-05-10T09:23:03;99500.33;;;11.39;47.30
45991;BME280;31721;41.740;-88.000;2023-05-10T09:25:31;99500.92;;;11.43;47.23
45991;BME280;31721;41.740;-88.000;2023-05-10T09:27:59;99501.54;;;11.36;47.40
45991;BME280;31721;41.740;-88.000;2023-05-10T09:30:29;99501.44;;;11.33;47.47
45991;BME280;31721;41.740;-88.000;2023-05-10T09:32:58;99504.03;;;11.32;47.60
45991;BME280;31721;41.740;-88.000;2023-05-10T09:35:28;99502.89;;;11.29;47.64
45991;BME280;31721;41.740;-88.000;2023-05-10T09:37:57;99499.18;;;11.27;47.60
45991;BME280;31721;41.740;-88.000;2023-05-10T09:40:27;99496.79;;;11.25;47.60
45991;BME280;31721;41.740;-88.000;2023-05-10T09:42:56;99497.14;;;11.24;47.69
45991;BME280;31721;41.740;-88.000;2023-05-10T09:45:26;99501.40;;;11.32;47.59
45991;BME280;31721;41.740;-88.000;2023-05-10T09:47:54;99495.96;;;11.23;47.84
45991;BME280;31721;41.740;-88.000;2023-05-10T09:50:23;99500.75;;;11.18;47.90
45991;BME280;31721;41.740;-88.000;2023-05-10T09:52:52;99498.67;;;11.18;48.05
45991;BME280;31721;41.740;-88.000;2023-05-10T09:55:21;99501.69;;;11.33;47.99
45991;BME280;31721;41.740;-88.000;2023-05-10T09:57:58;99504.21;;;11.21;47.97
45991;BME280;31721;41.740;-88.000;2023-05-10T10:00:27;99505.73;;;11.12;48.03
45991;BME280;31721;41.740;-88.000;2023-05-10T10:02:57;99508.63;;;11.19;48.06
45991;BME280;31721;41.740;-88.000;2023-05-10T10:05:28;99515.69;;;11.17;48.09
45991;BME280;31721;41.740;-88.000;2023-05-10T10:07:58;99517.29;;;11.15;48.15
45991;BME280;31721;41.740;-88.000;2023-05-10T10:10:27;99516.76;;;11.12;48.16
45991;BME280;31721;41.740;-88.000;2023-05-10T10:12:55;99520.58;;;11.11;48.12
45991;BME280;31721;41.740;-88.000;2023-05-10T10:15:23;99524.78;;;11.08;48.16
45991;BME280;31721;41.740;-88.000;2023-05-10T10:17:53;99525.25;;;11.11;48.30
45991;BME280;31721;41.740;-88.000;2023-05-10T10:20:22;99524.84;;;11.00;48.54
45991;BME280;31721;41.740;-88.000;2023-05-10T10:22:50;99530.95;;;11.08;48.80
45991;BME280;31721;41.740;-88.000;2023-05-10T10:25:19;99532.11;;;11.08;48.86
45991;BME280;31721;41.740;-88.000;2023-05-10T10:27:55;99537.76;;;10.97;48.69
45991;BME280;31721;41.740;-88.000;2023-05-10T10:30:30;99535.17;;;10.95;48.51
45991;BME280;31721;41.740;-88.000;2023-05-10T10:33:23;99541.62;;;10.88;48.81
45991;BME280;31721;41.740;-88.000;2023-05-10T10:35:55;99547.27;;;10.97;48.75
45991;BME280;31721;41.740;-88.000;2023-05-10T10:38:25;99558.86;;;10.81;48.79
45991;BME280;31721;41.740;-88.000;2023-05-10T10:41:03;99560.21;;;10.81;48.85
45991;BME280;31721;41.740;-88.000;2023-05-10T10:43:35;99563.91;;;10.90;49.29
45991;BME280;31721;41.740;-88.000;2023-05-10T10:46:13;99573.35;;;10.79;49.30
45991;BME280;31721;41.740;-88.000;2023-05-10T10:48:43;99573.29;;;10.77;49.35
45991;BME280;31721;41.740;-88.000;2023-05-10T10:51:14;99577.61;;;10.70;49.55
45991;BME280;31721;41.740;-88.000;2023-05-10T10:53:43;99582.75;;;10.73;49.53
45991;BME280;31721;41.740;-88.000;2023-05-10T10:56:12;99584.10;;;10.78;49.74
45991;BME280;31721;41.740;-88.000;2023-05-10T10:58:42;99582.01;;;10.76;49.61
45991;BME280;31721;41.740;-88.000;2023-05-10T11:01:17;99580.23;;;10.73;49.71
45991;BME280;31721;41.740;-88.000;2023-05-10T11:04:17;99580.55;;;10.67;49.87
45991;BME280;31721;41.740;-88.000;2023-05-10T11:06:45;99583.82;;;10.60;49.92
45991;BME280;31721;41.740;-88.000;2023-05-10T11:09:13;99592.17;;;10.64;50.01
45991;BME280;31721;41.740;-88.000;2023-05-10T11:11:56;99593.43;;;10.68;50.11
45991;BME280;31721;41.740;-88.000;2023-05-10T11:14:24;99595.92;;;10.79;50.24
45991;BME280;31721;41.740;-88.000;2023-05-10T11:16:52;99598.83;;;10.82;50.28
45991;BME280;31721;41.740;-88.000;2023-05-10T11:19:20;99602.64;;;10.86;50.12
45991;BME280;31721;41.740;-88.000;2023-05-10T11:21:49;99607.27;;;10.81;50.08
45991;BME280;31721;41.740;-88.000;2023-05-10T11:24:18;99611.82;;;10.78;50.39
45991;BME280;31721;41.740;-88.000;2023-05-10T11:26:48;99615.88;;;10.87;50.36
45991;BME280;31721;41.740;-88.000;2023-05-10T11:29:17;99616.14;;;10.94;50.56
45991;BME280;31721;41.740;-88.000;2023-05-10T11:31:47;99619.13;;;10.98;50.56
45991;BME280;31721;41.740;-88.000;2023-05-10T11:34:24;99619.63;;;11.10;50.52
45991;BME280;31721;41.740;-88.000;2023-05-10T11:36:52;99619.75;;;11.06;50.55
45991;BME280;31721;41.740;-88.000;2023-05-10T11:39:21;99620.15;;;11.05;50.41
45991;BME280;31721;41.740;-88.000;2023-05-10T11:41:49;99626.68;;;11.10;50.46
45991;BME280;31721;41.740;-88.000;2023-05-10T11:44:18;99626.92;;;11.18;50.50
45991;BME280;31721;41.740;-88.000;2023-05-10T11:46:45;99632.95;;;11.26;50.83
45991;BME280;31721;41.740;-88.000;2023-05-10T11:49:13;99633.17;;;11.30;50.82
45991;BME280;31721;41.740;-88.000;2023-05-10T11:51:41;99627.98;;;11.39;51.28
45991;BME280;31721;41.740;-88.000;2023-05-10T11:54:11;99627.27;;;11.47;51.38
45991;BME280;31721;41.740;-88.000;2023-05-10T11:56:40;99624.22;;;11.55;51.20
45991;BME280;31721;41.740;-88.000;2023-05-10T11:59:08;99625.47;;;11.58;51.18
45991;BME280;31721;41.740;-88.000;2023-05-10T12:01:37;99628.42;;;11.61;51.37
45991;BME280;31721;41.740;-88.000;2023-05-10T12:04:06;99628.04;;;11.80;51.38
45991;BME280;31721;41.740;-88.000;2023-05-10T12:06:40;99632.02;;;11.93;51.22
45991;BME280;31721;41.740;-88.000;2023-05-10T12:09:09;99637.23;;;11.98;51.36
45991;BME280;31721;41.740;-88.000;2023-05-10T12:11:39;99640.60;;;12.18;51.54
45991;BME280;31721;41.740;-88.000;2023-05-10T12:14:08;99642.42;;;12.30;51.04
45991;BME280;31721;41.740;-88.000;2023-05-10T12:16:36;99639.38;;;12.44;51.03
45991;BME280;31721;41.740;-88.000;2023-05-10T12:19:04;99641.92;;;12.58;50.94
45991;BME280;31721;41.740;-88.000;2023-05-10T12:21:33;99636.05;;;12.81;50.79
45991;BME280;31721;41.740;-88.000;2023-05-10T12:24:03;99635.87;;;12.96;50.34
45991;BME280;31721;41.740;-88.000;2023-05-10T12:26:31;99635.12;;;13.08;50.31
45991;BME280;31721;41.740;-88.000;2023-05-10T12:29:18;99640.43;;;13.20;49.79
45991;BME280;31721;41.740;-88.000;2023-05-10T12:31:51;99638.67;;;13.37;49.82
45991;BME280;31721;41.740;-88.000;2023-05-10T12:34:29;99639.29;;;13.50;49.28
45991;BME280;31721;41.740;-88.000;2023-05-10T12:36:58;99637.35;;;13.79;48.78
45991;BME280;31721;41.740;-88.000;2023-05-10T12:39:38;99640.35;;;14.03;48.46
45991;BME280;31721;41.740;-88.000;2023-05-10T12:42:07;99644.53;;;14.14;47.87
45991;BME280;31721;41.740;-88.000;2023-05-10T12:44:35;99643.91;;;14.35;47.79
45991;BME280;31721;41.740;-88.000;2023-05-10T12:47:03;99643.89;;;14.56;47.27
45991;BME280;31721;41.740;-88.000;2023-05-10T12:49:31;99642.16;;;14.69;47.17
45991;BME280;31721;41.740;-88.000;2023-05-10T12:51:58;99639.34;;;14.80;46.68